createdAt,value
2022-11-29T00:01:47.988Z,356.80
2022-11-29T00:04:14.416Z,400.38
2022-11-29T00:06:40.769Z,411.02
2022-11-29T00:09:09.117Z,356.02
2022-11-29T00:11:55.054Z,385.85
2022-11-29T00:14:21.678Z,399.50
2022-11-29T00:16:52.148Z,460.45
2022-11-29T00:19:18.606Z,380.55
2022-11-29T00:21:44.996Z,380.80
2022-11-29T00:24:11.408Z,421.90
2022-11-29T00:26:37.943Z,548.28
2022-11-29T00:29:04.737Z,503.13
2022-11-29T00:31:31.796Z,518.28
2022-11-29T00:33:59.096Z,406.35
2022-11-29T00:36:26.017Z,340.05
2022-11-29T00:38:52.686Z,392.55
2022-11-29T00:41:19.186Z,358.70
2022-11-29T00:43:45.473Z,374.35
2022-11-29T00:46:12.643Z,448.55
2022-11-29T00:48:39.193Z,356.50
2022-11-29T00:51:06.409Z,454.98
2022-11-29T00:53:33.179Z,415.25
2022-11-29T00:55:59.545Z,335.88
2022-11-29T00:58:25.898Z,488.35
2022-11-29T01:00:55.220Z,295.63
2022-11-29T01:03:22.018Z,278.42
2022-11-29T01:05:48.659Z,273.38
2022-11-29T01:08:15.323Z,315.88
2022-11-29T01:10:42.025Z,341.13
2022-11-29T01:13:08.996Z,350.92
2022-11-29T01:15:35.748Z,421.85
2022-11-29T01:18:02.186Z,491.67
2022-11-29T01:20:28.748Z,465.77
2022-11-29T01:22:55.082Z,411.33
2022-11-29T01:25:21.422Z,455.10
2022-11-29T01:27:47.998Z,485.80
2022-11-29T01:30:14.728Z,396.63
2022-11-29T01:32:41.061Z,436.30
2022-11-29T01:35:07.635Z,303.15
2022-11-29T01:37:34.089Z,261.02
2022-11-29T01:40:00.527Z,330.75
2022-11-29T01:42:26.886Z,390.33
2022-11-29T01:45:01.133Z,371.40
2022-11-29T01:47:27.863Z,390.15
2022-11-29T01:49:54.215Z,355.65
2022-11-29T01:52:22.409Z,376.80
2022-11-29T01:54:50.231Z,322.42
2022-11-29T01:57:18.294Z,293.25
2022-11-29T01:59:46.373Z,260.90
2022-11-29T02:02:14.130Z,319.33
2022-11-29T02:04:41.965Z,247.20
2022-11-29T02:07:09.096Z,280.80
2022-11-29T02:09:35.502Z,250.35
2022-11-29T02:12:12.376Z,240.70
2022-11-29T02:14:38.704Z,226.13
2022-11-29T02:17:20.730Z,227.20
2022-11-29T02:20:11.345Z,260.70
2022-11-29T02:22:42.993Z,377.10
2022-11-29T02:25:21.711Z,313.95
2022-11-29T02:28:06.469Z,307.77
2022-11-29T02:30:54.826Z,338.40
2022-11-29T02:33:24.208Z,356.63
2022-11-29T02:36:09.311Z,323.52
2022-11-29T02:38:47.858Z,286.98
2022-11-29T02:41:14.223Z,300.20
2022-11-29T02:43:46.307Z,272.17
2022-11-29T02:46:31.308Z,434.70
2022-11-29T02:49:16.224Z,266.55
2022-11-29T02:51:47.921Z,429.52
2022-11-29T02:54:29.727Z,319.90
2022-11-29T02:57:02.124Z,393.15
2022-11-29T02:59:47.311Z,440.30
2022-11-29T03:02:22.521Z,533.60
2022-11-29T03:05:15.233Z,349.20
2022-11-29T03:07:41.581Z,399.85
2022-11-29T03:10:17.748Z,397.02
2022-11-29T03:12:53.937Z,346.08
2022-11-29T03:15:33.746Z,438.55
2022-11-29T03:18:00.103Z,521.17
2022-11-29T03:20:34.076Z,586.85
2022-11-29T03:23:18.634Z,574.33
2022-11-29T03:25:54.833Z,651.08
2022-11-29T03:28:24.455Z,449.23
2022-11-29T03:30:54.941Z,702.78
2022-11-29T03:33:40.141Z,499.00
2022-11-29T03:36:13.190Z,474.30
2022-11-29T03:38:41.356Z,356.23
2022-11-29T03:41:13.681Z,520.38
2022-11-29T03:43:49.108Z,410.52
2022-11-29T03:46:25.890Z,583.08
2022-11-29T03:48:55.011Z,572.20
2022-11-29T03:51:33.529Z,499.42
2022-11-29T03:54:02.301Z,568.78
2022-11-29T03:56:30.538Z,568.78
2022-11-29T03:59:05.869Z,684.33
2022-11-29T04:01:50.737Z,751.08
2022-11-29T04:04:36.006Z,526.78
2022-11-29T04:07:02.334Z,425.80
2022-11-29T04:09:42.193Z,492.80
2022-11-29T04:12:16.917Z,517.30
2022-11-29T04:15:02.265Z,518.10
2022-11-29T04:17:47.326Z,707.78
2022-11-29T04:20:22.807Z,579.70
2022-11-29T04:23:01.879Z,611.92
2022-11-29T04:25:37.037Z,677.25
2022-11-29T04:28:17.368Z,694.45
2022-11-29T04:30:53.182Z,522.25
2022-11-29T04:33:44.715Z,535.67
2022-11-29T04:36:16.434Z,370.80
2022-11-29T04:38:48.334Z,373.55
2022-11-29T04:41:14.672Z,338.50
2022-11-29T04:43:40.953Z,482.33
2022-11-29T04:46:26.147Z,394.05
2022-11-29T04:49:02.201Z,379.02
2022-11-29T04:51:41.617Z,436.80
2022-11-29T04:54:20.166Z,476.60
2022-11-29T04:56:51.529Z,267.73
2022-11-29T04:59:26.278Z,482.52
2022-11-29T05:01:55.365Z,404.90
2022-11-29T05:04:25.917Z,408.05
2022-11-29T05:07:01.724Z,470.77
2022-11-29T05:09:28.005Z,467.38
2022-11-29T05:12:08.953Z,448.08
2022-11-29T05:14:41.066Z,463.48
2022-11-29T05:17:07.410Z,552.20
2022-11-29T05:19:46.841Z,349.67
2022-11-29T05:22:19.677Z,391.77
2022-11-29T05:24:52.969Z,417.55
2022-11-29T05:27:51.593Z,432.23
2022-11-29T05:30:22.704Z,636.58
2022-11-29T05:32:52.133Z,308.02
2022-11-29T05:35:18.472Z,586.72
2022-11-29T05:37:52.786Z,451.08
2022-11-29T05:40:28.212Z,290.33
2022-11-29T05:43:09.643Z,378.55
2022-11-29T05:45:36.016Z,450.20
2022-11-29T05:48:06.749Z,447.88
2022-11-29T05:50:38.273Z,245.48
2022-11-29T05:53:16.267Z,208.50
2022-11-29T05:55:55.514Z,215.77
2022-11-29T05:58:32.489Z,228.32
2022-11-29T06:01:07.008Z,158.23
2022-11-29T06:03:38.765Z,273.95
2022-11-29T06:06:22.420Z,216.43
2022-11-29T06:08:53.912Z,209.20
2022-11-29T06:11:26.144Z,182.85
2022-11-29T06:14:02.376Z,151.73
2022-11-29T06:16:57.907Z,329.60
2022-11-29T06:19:39.197Z,238.85
2022-11-29T06:22:16.928Z,227.82
2022-11-29T06:25:02.189Z,336.90
2022-11-29T06:27:57.445Z,161.07
2022-11-29T06:30:27.674Z,223.48
2022-11-29T06:32:57.182Z,191.15
2022-11-29T06:35:35.427Z,214.65
2022-11-29T06:38:12.484Z,156.07
2022-11-29T06:40:38.857Z,179.10
2022-11-29T06:43:05.248Z,187.00
2022-11-29T06:45:31.883Z,196.13
2022-11-29T06:48:01.449Z,250.43
2022-11-29T06:50:53.179Z,188.25
2022-11-29T06:53:24.052Z,143.57
2022-11-29T06:56:02.750Z,181.82
2022-11-29T06:58:36.019Z,160.50
2022-11-29T07:01:21.224Z,108.80
2022-11-29T07:03:50.525Z,148.80
2022-11-29T07:06:25.218Z,194.98
2022-11-29T07:08:53.631Z,233.65
2022-11-29T07:11:22.190Z,279.92
2022-11-29T07:13:48.740Z,306.20
2022-11-29T07:16:25.663Z,254.90
2022-11-29T07:19:00.894Z,399.35
2022-11-29T07:21:39.413Z,157.27
2022-11-29T07:24:14.640Z,198.88
2022-11-29T07:26:59.575Z,289.92
2022-11-29T07:29:45.062Z,240.88
2022-11-29T07:32:16.533Z,293.40
2022-11-29T07:35:08.985Z,265.45
2022-11-29T07:37:41.278Z,246.48
2022-11-29T07:40:16.461Z,277.13
2022-11-29T07:42:51.372Z,293.05
2022-11-29T07:45:31.991Z,413.35
2022-11-29T07:47:58.999Z,211.15
2022-11-29T07:50:26.196Z,130.43
2022-11-29T07:52:53.684Z,201.65
2022-11-29T07:55:21.345Z,213.95
2022-11-29T07:57:48.089Z,248.02
2022-11-29T08:00:14.906Z,224.05
2022-11-29T08:02:41.563Z,214.63
2022-11-29T08:05:08.575Z,193.35
2022-11-29T08:07:35.634Z,165.02
2022-11-29T08:10:02.284Z,207.52
2022-11-29T08:12:28.592Z,187.85
2022-11-29T08:14:54.882Z,145.82
2022-11-29T08:17:21.377Z,136.10
2022-11-29T08:19:47.801Z,145.93
2022-11-29T08:22:15.733Z,99.95
2022-11-29T08:24:42.090Z,58.35
2022-11-29T08:27:08.397Z,65.95
2022-11-29T08:29:34.989Z,61.15
2022-11-29T08:32:01.548Z,68.60
2022-11-29T08:34:28.441Z,75.40
2022-11-29T08:36:55.412Z,70.22
2022-11-29T08:39:21.842Z,115.57
2022-11-29T08:41:51.332Z,102.53
2022-11-29T08:44:18.174Z,100.03
2022-11-29T08:47:03.306Z,115.20
2022-11-29T08:49:29.849Z,130.20
2022-11-29T08:52:16.158Z,99.95
2022-11-29T08:54:42.975Z,147.90
2022-11-29T08:59:55.839Z,118.95
2022-11-29T09:02:22.201Z,87.78
2022-11-29T09:04:48.594Z,118.88
2022-11-29T09:07:16.068Z,106.07
2022-11-29T09:09:42.482Z,79.97
2022-11-29T09:12:09.889Z,105.25
2022-11-29T09:14:36.185Z,93.97
2022-11-29T09:17:02.470Z,170.65
2022-11-29T09:19:28.815Z,191.98
2022-11-29T09:21:55.322Z,158.80
2022-11-29T09:24:21.647Z,221.13
2022-11-29T09:26:48.320Z,130.38
2022-11-29T09:29:16.169Z,163.98
2022-11-29T09:31:44.993Z,113.68
2022-11-29T09:34:14.853Z,109.93
2022-11-29T09:36:41.184Z,137.88
2022-11-29T09:39:07.781Z,112.47
2022-11-29T09:41:34.067Z,155.60
2022-11-29T09:44:08.687Z,141.50
2022-11-29T09:46:37.814Z,103.93
2022-11-29T09:49:11.017Z,71.50
2022-11-29T09:51:49.463Z,135.25
2022-11-29T09:54:34.521Z,64.05
2022-11-29T09:57:08.869Z,68.70
2022-11-29T09:59:42.804Z,41.15
2022-11-29T10:02:21.087Z,59.78
2022-11-29T10:04:50.534Z,52.75
2022-11-29T10:07:21.429Z,49.10
2022-11-29T10:09:50.240Z,54.33
2022-11-29T10:12:18.838Z,77.25
2022-11-29T10:14:48.068Z,60.53
2022-11-29T10:17:21.982Z,63.22
2022-11-29T10:19:52.745Z,114.65
2022-11-29T10:22:35.447Z,98.95
2022-11-29T10:25:02.494Z,59.08
2022-11-29T10:27:29.727Z,57.95
2022-11-29T10:29:56.994Z,54.42
2022-11-29T10:32:25.284Z,53.92
2022-11-29T10:34:51.847Z,56.85
2022-11-29T10:37:19.393Z,63.13
2022-11-29T10:39:54.946Z,61.15
2022-11-29T10:42:41.274Z,96.95
2022-11-29T10:45:31.057Z,182.63
2022-11-29T10:48:06.215Z,80.65
2022-11-29T10:50:34.343Z,76.80
2022-11-29T10:53:04.065Z,74.82
2022-11-29T10:55:33.981Z,74.22
2022-11-29T10:58:09.613Z,101.22
2022-11-29T11:00:46.247Z,96.40
2022-11-29T11:03:17.130Z,53.03
2022-11-29T11:05:54.620Z,49.72
2022-11-29T11:08:21.062Z,49.80
2022-11-29T11:10:54.480Z,43.75
2022-11-29T11:13:25.021Z,55.28
2022-11-29T11:16:17.667Z,44.80
2022-11-29T11:18:44.874Z,37.65
2022-11-29T11:21:12.904Z,45.60
2022-11-29T11:23:43.129Z,49.45
2022-11-29T11:26:11.316Z,49.45
2022-11-29T11:28:40.808Z,56.00
2022-11-29T11:31:08.575Z,43.92
2022-11-29T11:33:37.685Z,48.60
2022-11-29T11:36:19.263Z,44.63
2022-11-29T11:38:56.396Z,45.42
2022-11-29T11:41:50.781Z,32.70
2022-11-29T11:44:48.324Z,50.45
2022-11-29T11:47:22.228Z,57.65
2022-11-29T11:49:53.429Z,52.90
2022-11-29T11:52:23.759Z,45.15
2022-11-29T11:54:52.590Z,52.45
2022-11-29T11:57:19.045Z,47.33
2022-11-29T11:59:49.297Z,45.53
2022-11-29T12:02:26.170Z,40.28
2022-11-29T12:04:54.717Z,45.67
2022-11-29T12:08:05.670Z,42.78
2022-11-29T12:10:20.827Z,37.58
2022-11-29T12:12:48.433Z,47.97
2022-11-29T12:15:23.836Z,40.60
2022-11-29T12:17:58.271Z,40.05
2022-11-29T12:20:24.644Z,36.65
2022-11-29T12:22:59.813Z,39.92
2022-11-29T12:25:29.304Z,42.75
2022-11-29T12:27:55.627Z,37.22
2022-11-29T12:30:22.029Z,36.70
2022-11-29T12:32:48.317Z,35.63
2022-11-29T12:35:18.641Z,42.10
2022-11-29T12:38:03.328Z,39.63
2022-11-29T12:40:32.578Z,29.67
2022-11-29T12:43:13.930Z,38.67
2022-11-29T12:45:40.225Z,31.83
2022-11-29T12:48:21.682Z,33.85
2022-11-29T12:51:03.289Z,36.10
2022-11-29T12:53:35.575Z,33.88
2022-11-29T12:56:07.552Z,29.25
2022-11-29T12:58:48.942Z,34.13
2022-11-29T13:01:24.580Z,35.33
2022-11-29T13:03:53.745Z,28.98
2022-11-29T13:06:20.078Z,38.67
2022-11-29T13:08:46.398Z,38.05
2022-11-29T13:11:12.754Z,32.90
2022-11-29T13:13:40.767Z,36.00
2022-11-29T13:19:12.286Z,30.23
2022-11-29T13:21:47.505Z,30.60
2022-11-29T13:24:19.263Z,23.30
2022-11-29T13:26:45.870Z,30.57
2022-11-29T13:29:14.125Z,29.20
2022-11-29T13:31:40.808Z,36.75
2022-11-29T13:34:12.992Z,36.55
2022-11-29T13:36:39.913Z,34.30
2022-11-29T13:39:13.828Z,33.33
2022-11-29T13:41:59.493Z,34.00
2022-11-29T13:44:55.378Z,31.13
2022-11-29T13:47:22.197Z,30.73
2022-11-29T13:49:50.381Z,35.75
2022-11-29T13:52:37.769Z,27.70
2022-11-29T13:55:15.433Z,24.27
2022-11-29T13:58:14.382Z,30.67
2022-11-29T14:00:33.719Z,33.17
2022-11-29T14:03:18.248Z,30.35
2022-11-29T14:05:46.218Z,34.33
2022-11-29T14:08:48.121Z,34.80
2022-11-29T14:11:22.519Z,34.33
2022-11-29T14:14:07.298Z,27.88
2022-11-29T14:16:36.418Z,30.58
2022-11-29T14:19:05.344Z,29.95
2022-11-29T14:21:50.158Z,37.03
2022-11-29T14:24:31.872Z,32.00
2022-11-29T14:27:18.117Z,31.65
2022-11-29T14:29:47.455Z,38.83
2022-11-29T14:32:21.271Z,37.20
2022-11-29T14:34:50.478Z,32.38
2022-11-29T14:37:26.785Z,38.55
2022-11-29T14:39:54.443Z,38.67
2022-11-29T14:42:22.483Z,40.47
2022-11-29T14:44:53.345Z,25.60
2022-11-29T14:47:24.601Z,33.20
2022-11-29T14:49:52.089Z,33.70
2022-11-29T14:52:25.381Z,38.35
2022-11-29T14:54:57.586Z,39.25
2022-11-29T14:57:42.938Z,46.33
2022-11-29T15:00:11.819Z,41.95
2022-11-29T15:02:43.766Z,39.65
2022-11-29T15:05:13.199Z,45.33
2022-11-29T15:07:43.348Z,42.15
2022-11-29T15:10:15.906Z,34.17
2022-11-29T15:12:42.440Z,40.55
2022-11-29T15:15:20.902Z,39.72
2022-11-29T15:17:53.697Z,38.50
2022-11-29T15:20:26.191Z,40.63
2022-11-29T15:22:58.161Z,45.20
2022-11-29T15:25:26.400Z,41.80
2022-11-29T15:27:56.603Z,42.38
2022-11-29T15:30:36.571Z,42.60
2022-11-29T15:33:23.284Z,55.50
2022-11-29T15:35:54.266Z,55.92
2022-11-29T15:38:21.496Z,51.53
2022-11-29T15:40:52.517Z,57.47
2022-11-29T15:43:22.466Z,52.10
2022-11-29T15:45:50.074Z,56.03
2022-11-29T15:48:16.452Z,58.80
2022-11-29T15:51:01.425Z,60.72
2022-11-29T15:53:47.999Z,66.75
2022-11-29T15:56:20.416Z,66.70
2022-11-29T15:58:47.706Z,66.00
2022-11-29T16:01:18.724Z,63.28
2022-11-29T16:03:46.224Z,58.78
2022-11-29T16:06:28.643Z,54.53
2022-11-29T16:08:55.176Z,57.97
2022-11-29T16:11:23.313Z,52.85
2022-11-29T16:14:08.491Z,60.17
2022-11-29T16:16:35.400Z,64.25
2022-11-29T16:19:08.949Z,57.95
2022-11-29T16:21:35.370Z,70.63
2022-11-29T16:24:19.270Z,69.55
2022-11-29T16:26:46.967Z,53.53
2022-11-29T16:29:19.517Z,64.28
2022-11-29T16:31:45.935Z,54.92
2022-11-29T16:34:21.392Z,46.05
2022-11-29T16:37:00.876Z,58.28
2022-11-29T16:39:27.700Z,58.88
2022-11-29T16:42:06.316Z,61.10
2022-11-29T16:44:38.418Z,50.95
2022-11-29T16:47:21.315Z,52.78
2022-11-29T16:52:27.285Z,55.55
2022-11-29T16:54:53.658Z,47.63
2022-11-29T16:57:20.289Z,51.88
2022-11-29T16:59:47.154Z,64.18
2022-11-29T17:02:14.400Z,46.17
2022-11-29T17:04:40.826Z,50.22
2022-11-29T17:07:08.297Z,45.40
2022-11-29T17:09:34.841Z,45.95
2022-11-29T17:12:01.993Z,45.88
2022-11-29T17:14:29.108Z,38.83
2022-11-29T17:16:55.646Z,43.97
2022-11-29T17:19:23.542Z,44.53
2022-11-29T17:21:50.589Z,42.28
2022-11-29T17:24:18.005Z,48.60
2022-11-29T17:26:44.994Z,39.58
2022-11-29T17:29:12.585Z,45.15
2022-11-29T17:31:39.021Z,42.38
2022-11-29T17:34:05.382Z,33.60
2022-11-29T17:36:32.197Z,41.55
2022-11-29T17:38:59.040Z,38.85
2022-11-29T17:41:26.029Z,39.30
2022-11-29T17:43:53.154Z,39.83
2022-11-29T17:46:21.141Z,39.63
2022-11-29T17:48:47.708Z,50.65
2022-11-29T17:51:43.700Z,34.78
2022-11-29T17:54:02.821Z,34.63
2022-11-29T17:56:29.929Z,35.88
2022-11-29T17:58:57.814Z,36.92
2022-11-29T18:01:25.465Z,47.05
2022-11-29T18:03:54.974Z,44.58
2022-11-29T18:06:22.493Z,27.95
2022-11-29T18:08:49.916Z,37.72
2022-11-29T18:11:18.278Z,32.85
2022-11-29T18:13:45.176Z,28.25
2022-11-29T18:16:12.991Z,34.72
2022-11-29T18:18:39.709Z,31.20
2022-11-29T18:21:06.841Z,34.72
2022-11-29T18:23:34.121Z,27.90
2022-11-29T18:26:01.946Z,31.55
2022-11-29T18:28:29.041Z,30.35
2022-11-29T18:30:56.298Z,30.42
2022-11-29T18:33:23.115Z,28.88
2022-11-29T18:35:49.624Z,28.77
2022-11-29T18:38:16.662Z,33.05
2022-11-29T18:40:45.619Z,34.47
2022-11-29T18:43:12.762Z,26.77
2022-11-29T18:45:39.099Z,28.65
2022-11-29T18:48:05.533Z,30.30
2022-11-29T18:50:32.234Z,25.95
2022-11-29T18:52:58.893Z,29.00
2022-11-29T18:55:25.666Z,32.72
2022-11-29T18:57:53.869Z,22.33
2022-11-29T19:00:20.400Z,26.83
2022-11-29T19:02:46.780Z,21.45
2022-11-29T19:05:13.165Z,22.33
2022-11-29T19:07:39.566Z,29.33
2022-11-29T19:10:06.230Z,18.58
2022-11-29T19:12:32.569Z,17.70
2022-11-29T19:14:59.601Z,17.15
2022-11-29T19:17:25.919Z,23.38
2022-11-29T19:19:52.253Z,26.60
2022-11-29T19:22:18.582Z,20.23
2022-11-29T19:24:45.117Z,24.65
2022-11-29T19:27:11.606Z,18.02
2022-11-29T19:29:39.751Z,18.98
2022-11-29T19:32:08.357Z,22.48
2022-11-29T19:34:34.679Z,20.80
2022-11-29T19:37:00.958Z,19.55
2022-11-29T19:39:28.494Z,20.90
2022-11-29T19:41:54.820Z,19.73
2022-11-29T19:44:22.975Z,24.05
2022-11-29T19:46:52.896Z,16.87
2022-11-29T19:49:19.184Z,14.52
2022-11-29T19:51:45.585Z,24.30
2022-11-29T19:54:12.104Z,19.85
2022-11-29T19:56:39.250Z,23.50
2022-11-29T19:59:05.997Z,22.23
2022-11-29T20:01:40.345Z,21.65
2022-11-29T20:04:08.615Z,24.90
2022-11-29T20:06:34.969Z,21.85
2022-11-29T20:09:02.101Z,17.27
2022-11-29T20:11:28.451Z,23.13
2022-11-29T20:13:56.033Z,32.05
2022-11-29T20:16:22.836Z,24.50
2022-11-29T20:18:51.067Z,29.25
2022-11-29T20:21:20.369Z,29.25
2022-11-29T20:23:46.926Z,29.00
2022-11-29T20:26:16.264Z,27.42
2022-11-29T20:28:43.060Z,23.70
2022-11-29T20:31:10.695Z,28.23
2022-11-29T20:33:38.090Z,24.52
2022-11-29T20:36:21.979Z,25.30
2022-11-29T20:38:52.369Z,23.90
2022-11-29T20:41:24.907Z,26.10
2022-11-29T20:43:55.496Z,20.73
2022-11-29T20:46:22.587Z,19.33
2022-11-29T20:48:49.488Z,21.50
2022-11-29T20:51:17.032Z,30.00
2022-11-29T20:53:44.188Z,26.50
2022-11-29T20:56:11.008Z,22.05
2022-11-29T20:58:37.986Z,15.85
2022-11-29T21:01:04.778Z,16.33
2022-11-29T21:03:31.335Z,14.20
2022-11-29T21:06:00.977Z,28.27
2022-11-29T21:08:27.361Z,22.80
2022-11-29T21:10:53.816Z,24.42
2022-11-29T21:13:21.431Z,18.85
2022-11-29T21:15:48.155Z,24.80
2022-11-29T21:18:18.350Z,15.65
2022-11-29T21:20:48.273Z,18.20
2022-11-29T21:23:20.820Z,45.55
2022-11-29T21:26:00.293Z,81.05
2022-11-29T21:28:30.117Z,39.45
2022-11-29T21:30:56.613Z,32.75
2022-11-29T21:33:23.270Z,23.88
2022-11-29T21:35:52.686Z,31.80
2022-11-29T21:38:21.554Z,41.97
2022-11-29T21:40:47.956Z,26.83
2022-11-29T21:43:14.247Z,21.58
2022-11-29T21:45:40.597Z,25.55
2022-11-29T21:48:29.949Z,41.20
2022-11-29T21:50:56.583Z,35.55
2022-11-29T21:53:22.920Z,30.40
2022-11-29T21:55:55.022Z,27.05
2022-11-29T21:58:21.297Z,20.33
2022-11-29T22:00:47.671Z,22.85
2022-11-29T22:03:14.184Z,20.02
2022-11-29T22:05:40.640Z,26.13
2022-11-29T22:08:07.078Z,27.40
2022-11-29T22:10:33.445Z,23.50
2022-11-29T22:12:59.821Z,21.58
2022-11-29T22:15:26.608Z,22.83
2022-11-29T22:17:53.434Z,24.67
2022-11-29T22:20:20.304Z,28.50
2022-11-29T22:22:48.433Z,30.30
2022-11-29T22:25:15.184Z,27.02
2022-11-29T22:27:41.477Z,26.38
2022-11-29T22:30:08.079Z,29.42
2022-11-29T22:32:34.570Z,24.60
2022-11-29T22:35:01.021Z,21.40
2022-11-29T22:37:28.010Z,26.33
2022-11-29T22:39:54.327Z,25.23
2022-11-29T22:42:20.657Z,20.55
2022-11-29T22:44:47.972Z,26.02
2022-11-29T22:47:14.509Z,24.73
2022-11-29T22:49:40.878Z,25.08
2022-11-29T22:52:07.436Z,25.38
2022-11-29T22:54:33.755Z,25.17
2022-11-29T22:57:00.092Z,29.77
2022-11-29T22:59:26.432Z,23.52
2022-11-29T23:01:52.810Z,27.73
2022-11-29T23:04:19.245Z,24.60
2022-11-29T23:06:45.879Z,25.13
2022-11-29T23:09:16.050Z,24.75
2022-11-29T23:11:46.523Z,23.05
2022-11-29T23:14:13.111Z,22.60
2022-11-29T23:16:39.536Z,25.95
2022-11-29T23:19:05.941Z,24.98
2022-11-29T23:21:33.387Z,23.13
2022-11-29T23:24:02.660Z,22.33
2022-11-29T23:26:30.566Z,25.80
2022-11-29T23:28:57.029Z,22.75
2022-11-29T23:31:23.859Z,29.30
2022-11-29T23:33:50.773Z,23.50
2022-11-29T23:36:17.397Z,26.15
2022-11-29T23:38:43.721Z,25.83
2022-11-29T23:41:11.523Z,25.13
2022-11-29T23:43:38.632Z,24.98
2022-11-29T23:46:05.837Z,24.08
2022-11-29T23:48:34.233Z,24.80
2022-11-29T23:51:00.824Z,27.05
2022-11-29T23:53:27.213Z,30.40
2022-11-29T23:56:00.466Z,25.80
2022-11-29T23:58:27.496Z,26.05
